createdAt,value
2022-11-12T00:05:05.082Z,4.20
2022-11-12T00:10:51.373Z,4.10
2022-11-12T00:16:37.458Z,4.00
2022-11-12T00:22:23.556Z,3.90
2022-11-12T00:28:11.303Z,3.80
2022-11-12T00:33:57.650Z,3.80
2022-11-12T00:39:44.436Z,3.80
2022-11-12T00:45:30.927Z,3.70
2022-11-12T00:51:17.164Z,3.70
2022-11-12T00:57:03.229Z,3.70
2022-11-12T01:02:51.316Z,3.60
2022-11-12T01:08:38.498Z,3.60
2022-11-12T01:14:24.739Z,3.70
2022-11-12T01:20:11.253Z,3.80
2022-11-12T01:25:58.111Z,3.80
2022-11-12T01:31:44.784Z,3.80
2022-11-12T01:37:31.043Z,3.90
2022-11-12T01:43:17.759Z,4.00
2022-11-12T01:49:11.358Z,4.00
2022-11-12T01:55:14.686Z,4.10
2022-11-12T02:01:02.493Z,4.10
2022-11-12T02:06:50.814Z,4.20
2022-11-12T02:12:56.449Z,4.20
2022-11-12T02:18:42.700Z,4.20
2022-11-12T02:24:33.267Z,4.20
2022-11-12T02:30:23.887Z,4.30
2022-11-12T02:36:10.503Z,4.30
2022-11-12T02:41:57.487Z,4.20
2022-11-12T02:47:43.593Z,4.20
2022-11-12T02:53:29.850Z,4.30
2022-11-12T02:59:16.112Z,4.20
2022-11-12T03:05:02.365Z,4.20
2022-11-12T03:10:49.545Z,4.10
2022-11-12T03:16:36.712Z,4.00
2022-11-12T03:22:22.905Z,3.90
2022-11-12T03:28:13.547Z,3.80
2022-11-12T03:33:59.723Z,3.70
2022-11-12T03:39:45.877Z,3.60
2022-11-12T03:45:33.197Z,3.50
2022-11-12T03:51:21.367Z,3.50
2022-11-12T03:57:07.705Z,3.40
2022-11-12T04:02:54.186Z,3.30
2022-11-12T04:08:40.469Z,3.30
2022-11-12T04:14:26.731Z,3.20
2022-11-12T04:20:31.278Z,3.20
2022-11-12T04:26:26.035Z,3.10
2022-11-12T04:32:12.353Z,3.00
2022-11-12T04:37:59.043Z,3.00
2022-11-12T04:44:11.399Z,3.00
2022-11-12T04:49:58.234Z,2.90
2022-11-12T04:55:44.337Z,2.90
2022-11-12T05:01:31.117Z,2.90
2022-11-12T05:07:18.538Z,2.80
2022-11-12T05:13:04.833Z,2.80
2022-11-12T05:18:51.231Z,2.70
2022-11-12T05:24:42.249Z,2.70
2022-11-12T05:30:29.045Z,2.70
2022-11-12T05:36:15.086Z,2.70
2022-11-12T05:42:16.066Z,2.60
2022-11-12T05:48:02.469Z,2.70
2022-11-12T05:53:48.616Z,2.90
2022-11-12T05:59:35.155Z,2.70
2022-11-12T06:05:21.196Z,2.70
2022-11-12T06:11:07.219Z,2.60
2022-11-12T06:16:53.315Z,2.60
2022-11-12T06:22:39.480Z,2.60
2022-11-12T06:28:26.640Z,2.70
2022-11-12T06:34:13.452Z,2.70
2022-11-12T06:39:59.423Z,2.80
2022-11-12T06:45:45.502Z,2.90
2022-11-12T06:51:31.626Z,3.00
2022-11-12T06:57:17.783Z,3.00
2022-11-12T07:03:09.414Z,3.00
2022-11-12T07:08:55.786Z,3.00
2022-11-12T07:14:41.982Z,3.10
2022-11-12T07:20:28.081Z,3.10
2022-11-12T07:26:27.657Z,3.20
2022-11-12T07:32:14.959Z,3.30
2022-11-12T07:38:02.123Z,3.30
2022-11-12T07:43:52.125Z,3.40
2022-11-12T07:49:38.239Z,3.50
2022-11-12T07:55:24.386Z,3.60
2022-11-12T08:01:34.715Z,3.80
2022-11-12T08:07:21.374Z,3.90
2022-11-12T08:13:07.842Z,4.00
2022-11-12T08:18:54.123Z,4.10
2022-11-12T08:24:40.118Z,4.30
2022-11-12T08:30:30.314Z,4.40
2022-11-12T08:36:18.261Z,4.60
2022-11-12T08:42:04.975Z,4.90
2022-11-12T08:47:51.238Z,5.10
2022-11-12T08:53:37.145Z,5.30
2022-11-12T08:59:23.348Z,5.40
2022-11-12T09:05:09.617Z,5.40
2022-11-12T09:10:59.174Z,5.60
2022-11-12T09:16:45.363Z,5.80
2022-11-12T09:22:33.521Z,6.00
2022-11-12T09:28:19.757Z,6.30
2022-11-12T09:34:05.951Z,6.50
2022-11-12T09:39:52.569Z,6.70
2022-11-12T09:45:39.474Z,6.90
2022-11-12T09:51:34.611Z,7.00
2022-11-12T09:57:20.680Z,7.30
2022-11-12T10:03:30.712Z,7.50
2022-11-12T10:09:41.602Z,7.60
2022-11-12T10:15:57.031Z,8.00
2022-11-12T10:22:27.054Z,8.00
2022-11-12T10:28:39.132Z,8.00
2022-11-12T10:34:26.187Z,7.90
2022-11-12T10:40:22.648Z,7.80
2022-11-12T10:46:27.679Z,7.70
2022-11-12T10:52:25.179Z,7.70
2022-11-12T10:58:11.288Z,7.80
2022-11-12T11:03:58.698Z,8.20
2022-11-12T11:09:57.666Z,8.40
2022-11-12T11:16:05.436Z,8.50
2022-11-12T11:22:26.522Z,8.60
2022-11-12T11:28:46.165Z,8.70
2022-11-12T11:34:58.164Z,8.80
2022-11-12T11:41:10.733Z,8.80
2022-11-12T11:47:04.795Z,8.90
2022-11-12T11:53:20.061Z,8.80
2022-11-12T11:59:16.213Z,8.80
2022-11-12T12:05:57.305Z,8.90
2022-11-12T12:11:50.583Z,9.00
2022-11-12T12:18:31.385Z,9.00
2022-11-12T12:24:30.007Z,9.10
2022-11-12T12:30:22.475Z,9.20
2022-11-12T12:36:13.192Z,9.30
2022-11-12T12:42:18.385Z,9.50
2022-11-12T12:48:21.892Z,9.50
2022-11-12T12:54:50.419Z,9.60
2022-11-12T13:00:41.773Z,9.60
2022-11-12T13:06:35.245Z,9.60
2022-11-12T13:13:04.883Z,9.60
2022-11-12T13:18:50.928Z,9.60
2022-11-12T13:25:08.736Z,9.60
2022-11-12T13:30:58.238Z,9.60
2022-11-12T13:37:04.390Z,9.60
2022-11-12T13:42:51.488Z,9.60
2022-11-12T13:48:49.590Z,9.50
2022-11-12T13:54:38.799Z,9.40
2022-11-12T14:00:28.683Z,9.30
2022-11-12T14:06:51.106Z,9.00
2022-11-12T14:13:02.244Z,8.80
2022-11-12T14:19:03.480Z,8.60
2022-11-12T14:24:59.536Z,8.40
2022-11-12T14:30:46.049Z,8.30
2022-11-12T14:36:32.139Z,8.10
2022-11-12T14:42:18.390Z,7.90
2022-11-12T14:48:09.469Z,7.80
2022-11-12T14:54:07.227Z,7.60
2022-11-12T14:59:53.888Z,7.60
2022-11-12T15:05:59.621Z,7.50
2022-11-12T15:11:49.831Z,7.30
2022-11-12T15:17:37.620Z,7.20
2022-11-12T15:23:24.115Z,7.20
2022-11-12T15:29:15.776Z,7.10
2022-11-12T15:35:02.348Z,7.10
2022-11-12T15:40:57.566Z,7.10
2022-11-12T15:46:44.787Z,7.00
2022-11-12T15:52:32.647Z,6.90
2022-11-12T15:58:32.198Z,6.80
2022-11-12T16:04:18.857Z,6.80
2022-11-12T16:10:05.854Z,6.80
2022-11-12T16:15:53.279Z,6.60
2022-11-12T16:21:40.097Z,6.50
2022-11-12T16:27:27.082Z,6.40
2022-11-12T16:33:14.606Z,6.40
2022-11-12T16:39:01.047Z,6.40
2022-11-12T16:44:47.343Z,6.30
2022-11-12T16:50:34.346Z,6.30
2022-11-12T16:56:23.002Z,6.30
2022-11-12T17:02:16.225Z,6.20
2022-11-12T17:08:02.619Z,6.30
2022-11-12T17:13:49.812Z,6.30
2022-11-12T17:19:35.850Z,6.20
2022-11-12T17:25:22.121Z,6.20
2022-11-12T17:31:21.037Z,6.10
2022-11-12T17:37:07.766Z,6.00
2022-11-12T17:42:54.400Z,6.00
2022-11-12T17:48:41.849Z,5.90
2022-11-12T17:54:28.551Z,5.90
2022-11-12T18:00:16.682Z,5.90
2022-11-12T18:06:03.488Z,5.80
2022-11-12T18:11:56.609Z,5.80
2022-11-12T18:17:43.173Z,5.80
2022-11-12T18:23:29.622Z,5.80
2022-11-12T18:29:16.399Z,5.90
2022-11-12T18:35:03.842Z,5.90
2022-11-12T18:41:00.702Z,5.80
2022-11-12T18:46:47.383Z,5.70
2022-11-12T18:52:33.796Z,5.80
2022-11-12T18:58:20.619Z,5.90
2022-11-12T19:04:06.763Z,6.00
2022-11-12T19:09:53.644Z,6.00
2022-11-12T19:15:41.183Z,6.00
2022-11-12T19:21:28.151Z,5.90
2022-11-12T19:27:14.366Z,5.80
2022-11-12T19:33:00.779Z,5.80
2022-11-12T19:38:47.370Z,5.70
2022-11-12T19:44:33.953Z,5.70
2022-11-12T19:50:24.528Z,5.70
2022-11-12T19:56:14.481Z,5.70
2022-11-12T20:02:01.110Z,5.70
2022-11-12T20:07:51.992Z,5.70
2022-11-12T20:13:38.432Z,5.70
2022-11-12T20:19:26.555Z,5.60
2022-11-12T20:25:14.419Z,5.60
2022-11-12T20:31:14.638Z,5.40
2022-11-12T20:37:01.030Z,5.40
2022-11-12T20:42:47.252Z,5.20
2022-11-12T20:48:33.585Z,5.20
2022-11-12T20:54:20.849Z,5.10
2022-11-12T21:00:13.541Z,5.20
2022-11-12T21:06:03.447Z,5.10
2022-11-12T21:11:50.069Z,5.00
2022-11-12T21:17:36.540Z,4.90
2022-11-12T21:23:23.782Z,4.80
2022-11-12T21:29:10.398Z,4.70
2022-11-12T21:34:57.363Z,4.70
2022-11-12T21:40:43.888Z,4.70
2022-11-12T21:46:32.277Z,4.70
2022-11-12T21:52:19.598Z,4.70
2022-11-12T21:58:06.256Z,4.50
2022-11-12T22:03:54.771Z,4.40
2022-11-12T22:09:40.870Z,4.40
2022-11-12T22:15:27.203Z,4.20
2022-11-12T22:21:26.232Z,4.10
2022-11-12T22:27:12.975Z,4.10
2022-11-12T22:33:01.360Z,4.00
2022-11-12T22:38:50.317Z,4.00
2022-11-12T22:44:37.001Z,4.00
2022-11-12T22:50:23.811Z,3.90
2022-11-12T22:56:15.942Z,3.90
2022-11-12T23:02:02.323Z,4.00
2022-11-12T23:07:49.512Z,4.00
2022-11-12T23:13:39.090Z,4.10
2022-11-12T23:19:26.022Z,4.10
2022-11-12T23:25:12.124Z,4.00
2022-11-12T23:30:58.719Z,3.90
2022-11-12T23:36:45.060Z,3.80
2022-11-12T23:42:31.387Z,3.70
2022-11-12T23:48:19.569Z,3.60
2022-11-12T23:54:06.472Z,3.40
2022-11-12T23:59:53.372Z,3.40
